Brogan, Oregon
Current Conditions -  °F | °C
As of 2:53 AM on Thursday 29 Jan 2015 (Local Time) from KONO Reporting Station
Moderate Fog Moderate Fog  
Wind Chill: 28°   Ceiling: 200
Heat Index: 28°   Visibility: 0.25mi
Dew Point: 26°   Wind: 0mph
Humidity: 92%   Direction: NA
Pressure: 30.46"   Gusts: NA
Location:  44.25°N, 117.52°W
Report Text: KONO 290953Z AUTO 00000KT 1/4SM FZFG VV002 M02/M03 A3046 RMK AO2 SLP331 I1001 T10221033
Loading
Personal Weather Stations






























Interactive Weather Map New forecast layout! Learn more

10-Day Weather Forecast

Advertisements
Track Severe Weather on mobile